createdAt,value
2022-10-21T00:00:55.477Z,3.90
2022-10-21T00:03:28.016Z,4.00
2022-10-21T00:08:24.977Z,4.30
2022-10-21T00:10:56.289Z,3.90
2022-10-21T00:13:25.748Z,3.90
2022-10-21T00:16:10.699Z,4.00
2022-10-21T00:18:40.006Z,4.20
2022-10-21T00:21:11.944Z,3.90
2022-10-21T00:31:08.782Z,6.70
2022-10-21T00:33:37.157Z,3.90
2022-10-21T00:36:07.609Z,4.10
2022-10-21T00:38:36.240Z,4.20
2022-10-21T00:46:07.749Z,4.10
2022-10-21T00:48:41.255Z,4.00
2022-10-21T00:51:11.338Z,4.10
2022-10-21T00:53:42.850Z,3.90
2022-10-21T00:56:16.489Z,4.00
2022-10-21T00:58:46.815Z,4.00
2022-10-21T01:06:19.048Z,4.20
2022-10-21T01:11:19.762Z,4.20
2022-10-21T01:14:16.517Z,4.20
2022-10-21T01:17:26.321Z,4.20
2022-10-21T01:20:31.221Z,4.10
2022-10-21T01:23:23.328Z,4.00
2022-10-21T01:26:21.563Z,3.70
2022-10-21T01:29:06.573Z,4.00
2022-10-21T01:31:41.838Z,4.00
2022-10-21T01:34:20.016Z,3.90
2022-10-21T01:36:56.993Z,3.90
2022-10-21T01:39:33.200Z,3.80
2022-10-21T01:44:44.349Z,4.20
2022-10-21T01:47:19.460Z,4.30
2022-10-21T01:49:53.709Z,4.20
2022-10-21T01:54:56.518Z,4.20
2022-10-21T01:57:28.677Z,4.20
2022-10-21T02:00:00.580Z,3.90
2022-10-21T02:02:33.041Z,4.00
2022-10-21T02:05:06.120Z,4.10
2022-10-21T02:07:34.117Z,4.10
2022-10-21T02:12:34.045Z,3.80
2022-10-21T02:15:04.850Z,3.70
2022-10-21T02:20:02.986Z,4.10
2022-10-21T02:22:32.674Z,4.00
2022-10-21T02:25:11.425Z,4.10
2022-10-21T02:32:47.568Z,4.00
2022-10-21T02:35:41.057Z,4.20
2022-10-21T02:38:22.595Z,4.20
2022-10-21T02:40:59.030Z,4.30
2022-10-21T02:43:32.243Z,4.10
2022-10-21T02:46:02.541Z,4.10
2022-10-21T02:48:34.305Z,4.00
2022-10-21T02:51:05.409Z,4.20
2022-10-21T02:53:33.652Z,4.10
2022-10-21T03:10:53.087Z,4.00
2022-10-21T03:13:22.416Z,4.10
2022-10-21T03:15:50.808Z,4.20
2022-10-21T03:18:19.060Z,3.90
2022-10-21T03:20:50.349Z,4.10
2022-10-21T03:23:18.917Z,3.90
2022-10-21T03:38:05.175Z,4.10
2022-10-21T04:02:49.821Z,4.00
2022-10-21T04:17:47.203Z,3.80
2022-10-21T04:30:08.510Z,3.70
2022-10-21T04:37:33.122Z,4.10
2022-10-21T05:09:38.229Z,2.70
2022-10-21T05:17:04.727Z,4.60
2022-10-21T05:22:04.150Z,4.80
2022-10-21T05:29:28.014Z,4.30
2022-10-21T05:49:13.840Z,4.50
2022-10-21T05:54:10.047Z,4.80
2022-10-21T06:01:38.126Z,4.20
2022-10-21T06:04:06.213Z,4.60
2022-10-21T06:23:57.215Z,5.30
2022-10-21T06:28:53.343Z,5.50
2022-10-21T06:33:50.079Z,5.30
2022-10-21T06:36:17.653Z,5.40
2022-10-21T06:41:15.303Z,2.30
2022-10-21T06:43:43.236Z,4.70
2022-10-21T06:46:13.383Z,4.70
2022-10-21T06:48:41.393Z,4.40
2022-10-21T06:51:15.154Z,4.70
2022-10-21T06:53:43.637Z,4.80
2022-10-21T06:56:14.479Z,5.10
2022-10-21T06:58:46.372Z,5.10
2022-10-21T07:01:33.566Z,6.00
2022-10-21T07:06:30.830Z,5.50
2022-10-21T07:08:59.404Z,5.50
2022-10-21T07:11:28.863Z,5.50
2022-10-21T07:13:57.261Z,5.30
2022-10-21T07:16:27.856Z,4.80
2022-10-21T07:21:26.509Z,5.10
2022-10-21T07:23:57.906Z,6.00
2022-10-21T07:26:30.105Z,5.60
2022-10-21T07:29:00.043Z,5.50
2022-10-21T07:31:29.370Z,5.10
2022-10-21T07:33:56.975Z,5.20
2022-10-21T07:36:27.631Z,5.10
2022-10-21T07:38:57.685Z,6.00
2022-10-21T07:41:28.945Z,6.10
2022-10-21T07:46:24.977Z,6.40
2022-10-21T07:48:53.154Z,6.50
2022-10-21T07:51:27.051Z,6.10
2022-10-21T07:54:00.378Z,6.20
2022-10-21T07:56:36.506Z,6.10
2022-10-21T07:59:12.441Z,6.00
2022-10-21T08:01:46.272Z,5.70
2022-10-21T08:04:17.739Z,5.90
2022-10-21T08:06:47.425Z,5.40
2022-10-21T08:09:17.375Z,5.80
2022-10-21T08:11:47.173Z,5.50
2022-10-21T08:14:18.402Z,5.90
2022-10-21T08:19:28.252Z,6.40
2022-10-21T08:21:59.450Z,6.20
2022-10-21T08:24:30.722Z,6.50
2022-10-21T08:27:01.392Z,6.70
2022-10-21T08:29:33.397Z,6.50
2022-10-21T08:32:03.744Z,6.60
2022-10-21T08:34:34.503Z,6.30
2022-10-21T08:37:05.548Z,6.20
2022-10-21T08:39:37.575Z,5.80
2022-10-21T08:42:19.766Z,6.40
2022-10-21T08:44:58.784Z,6.30
2022-10-21T08:47:47.414Z,6.30
2022-10-21T08:50:22.176Z,5.80
2022-10-21T08:52:55.580Z,6.40
2022-10-21T08:55:36.067Z,6.40
2022-10-21T08:58:06.364Z,6.60
2022-10-21T09:00:42.539Z,6.80
2022-10-21T09:03:33.427Z,6.60
2022-10-21T09:06:34.996Z,7.30
2022-10-21T09:09:23.392Z,6.40
2022-10-21T09:12:07.958Z,7.10
2022-10-21T09:15:10.324Z,7.20
2022-10-21T09:18:06.148Z,6.70
2022-10-21T09:20:55.924Z,6.50
2022-10-21T09:23:53.673Z,7.20
2022-10-21T09:26:43.437Z,7.50
2022-10-21T09:29:35.705Z,7.50
2022-10-21T09:32:15.486Z,6.90
2022-10-21T09:35:01.431Z,7.50
2022-10-21T09:37:42.563Z,6.40
2022-10-21T09:40:20.275Z,6.50
2022-10-21T09:42:51.350Z,6.40
2022-10-21T09:45:34.489Z,6.40
2022-10-21T09:48:29.649Z,6.30
2022-10-21T09:51:06.184Z,6.30
2022-10-21T09:53:53.702Z,7.20
2022-10-21T09:56:28.550Z,6.90
2022-10-21T09:59:07.714Z,7.20
2022-10-21T10:01:37.742Z,7.20
2022-10-21T10:04:15.630Z,6.80
2022-10-21T10:06:44.897Z,6.90
2022-10-21T10:09:29.957Z,7.00
2022-10-21T10:12:04.452Z,6.90
2022-10-21T10:14:36.633Z,7.00
2022-10-21T10:17:27.069Z,6.90
2022-10-21T10:20:20.489Z,6.70
2022-10-21T10:23:10.612Z,6.60
2022-10-21T10:25:40.814Z,5.80
2022-10-21T10:28:25.020Z,7.10
2022-10-21T10:30:57.072Z,7.50
2022-10-21T10:33:33.048Z,7.40
2022-10-21T10:36:09.272Z,7.30
2022-10-21T10:38:46.807Z,7.50
2022-10-21T10:41:18.573Z,7.10
2022-10-21T10:43:52.440Z,7.20
2022-10-21T10:46:27.774Z,7.40
2022-10-21T10:48:59.475Z,7.70
2022-10-21T10:51:33.288Z,7.80
2022-10-21T10:54:20.841Z,7.70
2022-10-21T10:56:56.052Z,7.90
2022-10-21T10:59:36.806Z,8.00
2022-10-21T11:02:23.682Z,8.10
2022-10-21T11:05:17.864Z,7.40
2022-10-21T11:07:52.811Z,7.90
2022-10-21T11:10:37.529Z,8.10
2022-10-21T11:13:12.862Z,7.80
2022-10-21T11:16:12.772Z,7.30
2022-10-21T11:18:49.728Z,7.60
2022-10-21T11:21:44.392Z,7.30
2022-10-21T11:24:43.091Z,7.20
2022-10-21T11:27:23.204Z,7.80
2022-10-21T11:30:04.380Z,6.80
2022-10-21T11:32:45.721Z,7.10
2022-10-21T11:35:26.411Z,7.20
2022-10-21T11:38:16.770Z,7.30
2022-10-21T11:40:54.306Z,6.90
2022-10-21T11:43:44.385Z,7.20
2022-10-21T11:46:24.771Z,7.30
2022-10-21T11:49:21.518Z,7.20
2022-10-21T11:52:09.531Z,7.30
2022-10-21T11:55:09.553Z,7.30
2022-10-21T11:57:51.700Z,7.80
2022-10-21T12:00:24.274Z,7.10
2022-10-21T12:03:18.294Z,7.10
2022-10-21T12:06:01.883Z,6.90
2022-10-21T12:08:41.184Z,7.70
2022-10-21T12:11:19.738Z,6.70
2022-10-21T12:13:54.731Z,7.50
2022-10-21T12:16:30.514Z,6.90
2022-10-21T12:19:01.590Z,6.20
2022-10-21T12:21:34.349Z,6.60
2022-10-21T12:24:12.620Z,6.80
2022-10-21T12:26:52.318Z,6.20
2022-10-21T12:29:37.871Z,6.40
2022-10-21T12:32:28.477Z,5.50
2022-10-21T12:34:57.829Z,6.80
2022-10-21T12:38:03.759Z,7.00
2022-10-21T12:40:41.947Z,6.70
2022-10-21T12:43:30.638Z,6.50
2022-10-21T12:46:08.280Z,6.60
2022-10-21T12:48:43.950Z,6.80
2022-10-21T12:51:28.506Z,6.70
2022-10-21T12:54:10.222Z,7.00
2022-10-21T12:56:47.950Z,7.00
2022-10-21T12:59:35.097Z,6.80
2022-10-21T13:02:22.727Z,7.10
2022-10-21T13:04:55.439Z,7.60
2022-10-21T13:07:32.513Z,6.90
2022-10-21T13:10:17.956Z,7.00
2022-10-21T13:12:49.408Z,7.00
2022-10-21T13:15:48.663Z,7.40
2022-10-21T13:18:54.641Z,6.90
2022-10-21T13:21:45.835Z,6.70
2022-10-21T13:24:28.163Z,6.50
2022-10-21T13:27:02.172Z,6.90
2022-10-21T13:29:47.887Z,6.80
2022-10-21T13:32:27.476Z,7.20
2022-10-21T13:35:22.946Z,6.60
2022-10-21T13:38:12.650Z,6.80
2022-10-21T13:40:53.826Z,6.50
2022-10-21T13:43:32.594Z,6.40
2022-10-21T13:46:19.987Z,6.30
2022-10-21T13:48:51.443Z,6.50
2022-10-21T13:51:26.627Z,6.30
2022-10-21T13:53:58.835Z,7.00
2022-10-21T13:56:34.692Z,6.80
2022-10-21T13:59:07.305Z,6.60
2022-10-21T14:01:49.457Z,6.20
2022-10-21T14:04:26.577Z,6.60
2022-10-21T14:07:01.877Z,6.90
2022-10-21T14:09:34.243Z,6.40
2022-10-21T14:12:08.315Z,6.90
2022-10-21T14:14:40.159Z,7.20
2022-10-21T14:17:18.387Z,7.10
2022-10-21T14:19:53.197Z,6.70
2022-10-21T14:22:26.050Z,6.70
2022-10-21T14:24:58.405Z,6.80
2022-10-21T14:27:32.267Z,6.70
2022-10-21T14:30:05.088Z,6.70
2022-10-21T14:35:25.098Z,6.70
2022-10-21T14:38:00.122Z,7.10
2022-10-21T14:40:43.129Z,6.50
2022-10-21T14:43:38.007Z,6.50
2022-10-21T14:46:07.985Z,6.80
2022-10-21T14:48:43.966Z,6.60
2022-10-21T14:51:17.679Z,6.60
2022-10-21T14:54:00.244Z,6.60
2022-10-21T14:56:35.692Z,6.50
2022-10-21T14:59:20.051Z,6.50
2022-10-21T15:01:49.039Z,6.80
2022-10-21T15:04:47.276Z,6.60
2022-10-21T15:07:32.703Z,6.80
2022-10-21T15:10:20.005Z,6.90
2022-10-21T15:12:51.621Z,6.90
2022-10-21T15:15:54.018Z,6.40
2022-10-21T15:18:33.746Z,6.50
2022-10-21T15:21:11.755Z,4.80
2022-10-21T15:23:44.408Z,6.90
2022-10-21T15:26:22.145Z,6.50
2022-10-21T15:31:21.130Z,6.60
2022-10-21T15:33:51.672Z,6.90
2022-10-21T15:38:48.895Z,6.50
2022-10-21T15:41:21.219Z,6.60
2022-10-21T15:44:05.751Z,6.70
2022-10-21T15:46:41.329Z,6.50
2022-10-21T15:49:18.252Z,6.60
2022-10-21T15:51:45.797Z,6.70
2022-10-21T15:54:14.376Z,6.10
2022-10-21T15:56:44.154Z,6.20
2022-10-21T15:59:18.979Z,6.40
2022-10-21T16:04:15.328Z,6.10
2022-10-21T16:06:48.999Z,6.60
2022-10-21T16:09:22.361Z,6.40
2022-10-21T16:11:59.338Z,6.50
2022-10-21T16:14:30.235Z,6.50
2022-10-21T16:16:59.753Z,6.10
2022-10-21T16:19:28.671Z,6.30
2022-10-21T16:21:56.691Z,6.50
2022-10-21T16:24:24.444Z,6.40
2022-10-21T16:29:22.541Z,6.40
2022-10-21T16:31:50.917Z,6.40
2022-10-21T16:34:19.306Z,6.50
2022-10-21T16:39:17.693Z,6.40
2022-10-21T16:44:13.289Z,6.20
2022-10-21T16:46:51.715Z,6.40
2022-10-21T16:49:24.024Z,6.70
2022-10-21T16:54:24.097Z,6.30
2022-10-21T16:59:24.051Z,5.90
2022-10-21T17:09:16.713Z,6.90
2022-10-21T17:14:18.829Z,6.60
2022-10-21T17:16:47.297Z,6.50
2022-10-21T17:19:15.601Z,6.40
2022-10-21T17:21:47.109Z,6.40
2022-10-21T17:29:15.835Z,6.50
2022-10-21T17:31:43.896Z,6.00
2022-10-21T17:34:27.688Z,6.50
2022-10-21T17:44:21.468Z,6.40
2022-10-21T17:46:52.205Z,5.80
2022-10-21T17:51:49.886Z,6.30
2022-10-21T17:54:22.895Z,6.80
2022-10-21T17:56:54.876Z,5.90
2022-10-21T17:59:24.066Z,6.40
2022-10-21T18:06:48.637Z,6.20
2022-10-21T18:19:09.644Z,6.70
2022-10-21T18:26:40.423Z,6.10
2022-10-21T18:31:37.878Z,6.20
2022-10-21T18:34:14.483Z,6.10
2022-10-21T18:36:46.213Z,6.30
2022-10-21T18:39:14.864Z,6.40
2022-10-21T18:44:14.110Z,10.00
2022-10-21T18:46:43.436Z,6.60
2022-10-21T18:49:14.949Z,6.40
2022-10-21T18:51:46.079Z,6.70
2022-10-21T18:56:45.221Z,6.40
2022-10-21T18:59:13.669Z,6.40
2022-10-21T19:04:10.386Z,6.60
2022-10-21T19:06:42.738Z,6.60
2022-10-21T19:09:15.706Z,6.50
2022-10-21T19:11:46.054Z,6.60
2022-10-21T19:14:16.312Z,6.40
2022-10-21T19:16:49.287Z,6.60
2022-10-21T19:19:18.479Z,6.60
2022-10-21T19:21:47.967Z,6.50
2022-10-21T19:24:17.695Z,6.70
2022-10-21T19:26:47.998Z,6.50
2022-10-21T19:29:20.595Z,6.60
2022-10-21T19:31:49.624Z,6.50
2022-10-21T19:34:21.843Z,6.60
2022-10-21T19:36:50.931Z,6.60
2022-10-21T19:39:20.404Z,6.30
2022-10-21T19:46:45.174Z,6.30
2022-10-21T19:49:14.931Z,6.50
2022-10-21T19:54:13.435Z,4.30
2022-10-21T19:56:42.029Z,6.50
2022-10-21T19:59:11.245Z,6.30
2022-10-21T20:01:39.268Z,6.30
2022-10-21T20:04:07.071Z,6.00
2022-10-21T20:06:39.173Z,6.60
2022-10-21T20:09:10.041Z,6.40
2022-10-21T20:11:39.792Z,6.70
2022-10-21T20:16:39.047Z,6.40
2022-10-21T20:19:08.061Z,6.40
2022-10-21T20:21:37.733Z,6.70
2022-10-21T20:24:06.105Z,6.90
2022-10-21T20:26:34.265Z,6.20
2022-10-21T20:31:31.740Z,6.30
2022-10-21T20:33:59.533Z,5.90
2022-10-21T20:36:29.753Z,6.20
2022-10-21T20:38:59.643Z,6.00
2022-10-21T20:41:33.790Z,6.10
2022-10-21T20:44:03.335Z,6.70
2022-10-21T20:49:04.906Z,6.00
2022-10-21T20:51:33.684Z,5.90
2022-10-21T20:54:04.650Z,6.10
2022-10-21T20:56:34.917Z,6.60
2022-10-21T20:59:06.373Z,6.00
2022-10-21T21:01:37.568Z,6.10
2022-10-21T21:04:11.832Z,5.80
2022-10-21T21:06:42.351Z,5.70
2022-10-21T21:16:55.565Z,6.30
2022-10-21T21:19:24.212Z,6.10
2022-10-21T21:21:52.336Z,5.80
2022-10-21T21:26:49.229Z,6.70
2022-10-21T21:29:17.112Z,6.10
2022-10-21T21:31:44.788Z,6.30
2022-10-21T21:34:13.921Z,6.40
2022-10-21T21:36:41.894Z,6.40
2022-10-21T21:39:12.386Z,6.90
2022-10-21T21:41:40.346Z,6.20
2022-10-21T21:49:06.247Z,6.10
2022-10-21T21:51:36.757Z,5.50
2022-10-21T21:54:05.956Z,6.20
2022-10-21T21:56:34.900Z,6.70
2022-10-21T21:59:02.893Z,6.50
2022-10-21T22:04:00.348Z,6.50
2022-10-21T22:06:33.410Z,6.00
2022-10-21T22:09:02.288Z,6.40
2022-10-21T22:11:33.260Z,6.50
2022-10-21T22:14:01.057Z,6.00
2022-10-21T22:16:31.643Z,6.20
2022-10-21T22:19:02.602Z,6.80
2022-10-21T22:21:34.784Z,6.50
2022-10-21T22:24:05.717Z,8.30
2022-10-21T22:26:36.043Z,6.20
2022-10-21T22:29:07.676Z,6.30
2022-10-21T22:36:42.919Z,6.80
2022-10-21T22:39:14.191Z,7.40
2022-10-21T22:41:44.948Z,6.70
2022-10-21T22:44:13.336Z,6.50
2022-10-21T22:46:43.493Z,6.30
2022-10-21T22:49:11.681Z,6.40
2022-10-21T23:01:42.946Z,6.40
2022-10-21T23:04:10.661Z,6.40
2022-10-21T23:11:34.991Z,6.90
2022-10-21T23:16:37.102Z,6.30
2022-10-21T23:26:28.337Z,6.80
2022-10-21T23:41:14.821Z,6.40
2022-10-21T23:43:42.200Z,6.40
2022-10-21T23:46:09.676Z,6.40
2022-10-21T23:56:00.904Z,6.50
2022-10-21T23:58:30.249Z,6.70
